This is the latest recevied weather packets stored in our database for station/object K9RCP-20. If no packets are shown the sender has not sent any weather packets the latest 10 day(s).
| Time | Temp. | Humidity | Pressure | Rain* | Wind** | Luminosity | Snow |
|---|---|---|---|---|---|---|---|
| 1778199100 | 23.33° C | 41% | 1013.9 hPa | 0 mm | - | 345 W/m² | - |
| 1778198796 | 23.33° C | 38% | 1013.7 hPa | 0 mm | - | 356 W/m² | - |
| 1778198493 | 22.78° C | 40% | 1013.7 hPa | 0 mm | - | 352 W/m² | - |
| 1778198190 | 22.78° C | 40% | 1013.8 hPa | 0 mm | - | 381 W/m² | - |
| 1778197887 | 22.78° C | 41% | 1013.9 hPa | 0 mm | - | 390 W/m² | - |
| 1778197584 | 22.78° C | 40% | 1014.1 hPa | 0 mm | - | 407 W/m² | - |
| 1778197280 | 23.89° C | 40% | 1014.1 hPa | 0 mm | - | 427 W/m² | - |
| 1778196977 | 23.33° C | 39% | 1014.1 hPa | 0 mm | - | 439 W/m² | - |
| 1778196676 | 22.78° C | 39% | 1014.3 hPa | 0 mm | - | 458 W/m² | - |
| 1778196372 | 23.89° C | 39% | 1014.3 hPa | 0 mm | - | 483 W/m² | - |
| 1778196069 | 24.44° C | 34% | 1014.3 hPa | 0 mm | - | 508 W/m² | - |
| 1778195765 | 23.89° C | 35% | 1014.5 hPa | 0 mm | - | 516 W/m² | - |
| 1778195463 | 22.78° C | 40% | 1014.5 hPa | 0 mm | - | 551 W/m² | - |
| 1778195159 | 23.33° C | 39% | 1014.5 hPa | 0 mm | - | 465 W/m² | - |
| 1778194856 | 23.89° C | 40% | 1014.5 hPa | 0 mm | - | 526 W/m² | - |
| 1778194551 | 22.78° C | 42% | 1014.9 hPa | 0 mm | - | 542 W/m² | - |
| 1778194248 | 23.89° C | 39% | 1014.7 hPa | 0 mm | - | 541 W/m² | - |
| 1778193943 | 23.33° C | 41% | 1015 hPa | 0 mm | - | 555 W/m² | - |
| 1778193640 | 23.33° C | 40% | 1015 hPa | 0 mm | - | 563 W/m² | - |
| 1778193336 | 23.89° C | 39% | 1014.9 hPa | 0 mm | - | 574 W/m² | - |
| 1778193033 | 22.22° C | 40% | 1015.2 hPa | 0 mm | - | 581 W/m² | - |
| 1778192731 | 22.78° C | 39% | 1015 hPa | 0 mm | - | 598 W/m² | - |
| 1778192427 | 22.22° C | 41% | 1015.2 hPa | 0 mm | - | 607 W/m² | - |
| 1778192123 | 21.67° C | 42% | 1015.2 hPa | 0 mm | - | 610 W/m² | - |
| 1778191820 | 21.67° C | 43% | 1015.4 hPa | 0 mm | - | 580 W/m² | - |
* Rain latest hour (hover to see other rain measurements)
** Current wind speed in m/s (hover to see current wind gust speed)